createdAt,value
2022-12-03T00:01:39.705Z,25.53
2022-12-03T00:04:06.042Z,25.35
2022-12-03T00:06:34.644Z,25.62
2022-12-03T00:09:01.210Z,25.40
2022-12-03T00:11:27.450Z,25.28
2022-12-03T00:13:53.688Z,25.52
2022-12-03T00:16:20.016Z,26.15
2022-12-03T00:18:46.345Z,25.48
2022-12-03T00:21:12.605Z,25.71
2022-12-03T00:23:42.282Z,26.25
2022-12-03T00:26:08.821Z,26.59
2022-12-03T00:28:35.083Z,26.52
2022-12-03T00:31:01.416Z,26.54
2022-12-03T00:33:27.738Z,27.19
2022-12-03T00:35:53.990Z,25.80
2022-12-03T00:38:20.253Z,26.19
2022-12-03T00:40:46.502Z,27.76
2022-12-03T00:43:12.789Z,26.47
2022-12-03T00:45:39.031Z,26.40
2022-12-03T00:48:05.270Z,25.90
2022-12-03T00:50:31.530Z,26.07
2022-12-03T00:52:57.791Z,27.70
2022-12-03T00:55:24.035Z,26.74
2022-12-03T00:57:50.309Z,27.23
2022-12-03T01:00:16.558Z,27.39
2022-12-03T01:02:42.799Z,27.14
2022-12-03T01:05:09.144Z,26.68
2022-12-03T01:07:35.592Z,26.88
2022-12-03T01:10:01.897Z,26.06
2022-12-03T01:12:28.142Z,26.92
2022-12-03T01:14:54.637Z,26.74
2022-12-03T01:17:21.057Z,26.80
2022-12-03T01:19:48.525Z,26.69
2022-12-03T01:22:15.050Z,27.36
2022-12-03T01:24:41.350Z,27.15
2022-12-03T01:27:07.597Z,27.15
2022-12-03T01:29:33.856Z,28.37
2022-12-03T01:32:00.135Z,27.10
2022-12-03T01:34:26.402Z,27.94
2022-12-03T01:36:52.660Z,28.00
2022-12-03T01:39:18.930Z,27.94
2022-12-03T01:41:45.183Z,28.04
2022-12-03T01:44:11.422Z,28.37
2022-12-03T01:46:37.762Z,28.73
2022-12-03T01:49:04.057Z,28.68
2022-12-03T01:51:30.321Z,28.38
2022-12-03T01:53:56.567Z,28.62
2022-12-03T01:56:22.822Z,28.52
2022-12-03T01:58:49.092Z,27.98
2022-12-03T02:01:15.387Z,29.04
2022-12-03T02:03:41.725Z,28.36
2022-12-03T02:06:08.029Z,28.20
2022-12-03T02:08:34.270Z,27.10
2022-12-03T02:11:01.182Z,28.25
2022-12-03T02:13:27.506Z,28.29
2022-12-03T02:15:53.845Z,27.18
2022-12-03T02:18:20.131Z,28.48
2022-12-03T02:20:46.397Z,28.26
2022-12-03T02:23:12.638Z,28.50
2022-12-03T02:25:38.922Z,28.67
2022-12-03T02:28:05.181Z,28.82
2022-12-03T02:30:31.422Z,28.54
2022-12-03T02:32:57.686Z,29.07
2022-12-03T02:35:23.932Z,30.75
2022-12-03T02:37:50.170Z,28.40
2022-12-03T02:40:16.437Z,28.41
2022-12-03T02:42:42.708Z,30.27
2022-12-03T02:45:08.950Z,28.65
2022-12-03T02:47:35.220Z,28.97
2022-12-03T02:50:01.506Z,28.48
2022-12-03T02:52:27.779Z,28.77
2022-12-03T02:54:54.206Z,28.68
2022-12-03T02:57:20.613Z,28.08
2022-12-03T02:59:46.858Z,28.19
2022-12-03T03:02:13.174Z,28.26
2022-12-03T03:04:39.462Z,27.14
2022-12-03T03:07:05.708Z,27.60
2022-12-03T03:09:31.947Z,27.55
2022-12-03T03:11:58.215Z,26.84
2022-12-03T03:14:24.463Z,26.97
2022-12-03T03:16:50.809Z,27.56
2022-12-03T03:19:17.125Z,28.34
2022-12-03T03:21:43.365Z,29.25
2022-12-03T03:24:09.617Z,28.70
2022-12-03T03:26:35.870Z,29.10
2022-12-03T03:29:02.127Z,28.59
2022-12-03T03:31:28.482Z,28.50
2022-12-03T03:33:54.770Z,28.66
2022-12-03T03:36:21.014Z,28.75
2022-12-03T03:38:47.263Z,28.57
2022-12-03T03:41:13.519Z,27.86
2022-12-03T03:43:39.799Z,27.91
2022-12-03T03:46:06.079Z,27.82
2022-12-03T03:48:32.420Z,28.24
2022-12-03T03:50:58.681Z,28.11
2022-12-03T03:53:24.933Z,28.48
2022-12-03T03:55:51.192Z,28.06
2022-12-03T03:58:17.434Z,28.10
2022-12-03T04:00:43.734Z,27.19
2022-12-03T04:03:10.057Z,27.15
2022-12-03T04:05:36.320Z,27.55
2022-12-03T04:08:02.657Z,27.79
2022-12-03T04:10:28.988Z,26.62
2022-12-03T04:12:55.253Z,26.46
2022-12-03T04:15:21.527Z,26.60
2022-12-03T04:17:47.809Z,26.93
2022-12-03T04:20:14.054Z,26.97
2022-12-03T04:22:40.309Z,27.88
2022-12-03T04:25:06.563Z,27.65
2022-12-03T04:27:32.824Z,28.35
2022-12-03T04:29:59.187Z,27.32
2022-12-03T04:32:25.457Z,26.84
2022-12-03T04:34:52.197Z,26.89
2022-12-03T04:37:18.823Z,26.14
2022-12-03T04:39:45.085Z,27.12
2022-12-03T04:42:11.363Z,25.85
2022-12-03T04:44:37.637Z,26.32
2022-12-03T04:47:03.897Z,26.28
2022-12-03T04:49:30.168Z,27.43
2022-12-03T04:51:56.411Z,26.62
2022-12-03T04:54:22.651Z,26.65
2022-12-03T04:56:48.898Z,27.89
2022-12-03T04:59:16.565Z,28.61
2022-12-03T05:01:43.140Z,28.78
2022-12-03T05:04:09.429Z,27.70
2022-12-03T05:06:35.676Z,27.49
2022-12-03T05:09:01.989Z,28.42
2022-12-03T05:11:28.264Z,29.03
2022-12-03T05:13:54.521Z,28.60
2022-12-03T05:16:20.850Z,29.00
2022-12-03T05:18:47.125Z,27.66
2022-12-03T05:21:13.385Z,28.27
2022-12-03T05:23:39.669Z,27.96
2022-12-03T05:26:05.934Z,27.71
2022-12-03T05:28:32.193Z,27.54
2022-12-03T05:30:58.491Z,27.84
2022-12-03T05:33:24.813Z,27.30
2022-12-03T05:35:51.118Z,26.83
2022-12-03T05:38:17.386Z,27.17
2022-12-03T05:40:43.641Z,26.74
2022-12-03T05:43:09.882Z,26.35
2022-12-03T05:45:36.163Z,26.91
2022-12-03T05:48:02.432Z,27.04
2022-12-03T05:50:28.686Z,26.28
2022-12-03T05:52:54.929Z,26.54
2022-12-03T05:55:21.189Z,26.87
2022-12-03T05:57:47.439Z,27.37
2022-12-03T06:00:13.700Z,27.14
2022-12-03T06:02:40.030Z,27.09
2022-12-03T06:05:06.377Z,26.83
2022-12-03T06:07:32.674Z,27.23
2022-12-03T06:09:58.977Z,27.27
2022-12-03T06:12:25.230Z,27.39
2022-12-03T06:14:51.814Z,26.95
2022-12-03T06:17:18.362Z,28.69
2022-12-03T06:19:44.623Z,28.11
2022-12-03T06:22:10.881Z,27.83
2022-12-03T06:24:37.167Z,27.97
2022-12-03T06:27:03.464Z,27.29
2022-12-03T06:29:29.727Z,27.30
2022-12-03T06:31:55.985Z,27.33
2022-12-03T06:34:22.367Z,26.86
2022-12-03T06:36:48.641Z,26.85
2022-12-03T06:39:14.929Z,26.94
2022-12-03T06:41:41.207Z,26.15
2022-12-03T06:44:07.450Z,26.51
2022-12-03T06:46:33.775Z,26.72
2022-12-03T06:49:00.086Z,26.02
2022-12-03T06:51:26.329Z,25.94
2022-12-03T06:53:52.591Z,25.18
2022-12-03T06:56:22.052Z,25.73
2022-12-03T06:58:48.843Z,26.40
2022-12-03T07:01:15.127Z,25.44
2022-12-03T07:03:41.471Z,25.97
2022-12-03T07:06:07.718Z,26.51
2022-12-03T07:08:33.993Z,26.45
2022-12-03T07:11:00.240Z,25.76
2022-12-03T07:13:26.486Z,26.97
2022-12-03T07:15:52.775Z,26.18
2022-12-03T07:18:19.100Z,25.52
2022-12-03T07:20:45.359Z,26.60
2022-12-03T07:23:11.616Z,26.76
2022-12-03T07:25:37.873Z,27.59
2022-12-03T07:28:19.207Z,27.16
2022-12-03T07:30:45.447Z,28.25
2022-12-03T07:33:11.724Z,28.23
2022-12-03T07:35:37.966Z,28.21
2022-12-03T07:38:04.225Z,28.14
2022-12-03T07:40:30.493Z,27.52
2022-12-03T07:42:56.747Z,27.35
2022-12-03T07:45:22.990Z,27.76
2022-12-03T07:47:49.257Z,27.88
2022-12-03T07:50:15.519Z,26.96
2022-12-03T07:52:41.790Z,27.59
2022-12-03T07:55:08.035Z,27.48
2022-12-03T07:57:34.281Z,28.08
2022-12-03T08:00:00.536Z,28.62
2022-12-03T08:02:26.825Z,28.76
2022-12-03T08:04:53.323Z,30.72
2022-12-03T08:07:19.780Z,27.93
2022-12-03T08:09:46.021Z,28.90
2022-12-03T08:12:12.277Z,28.26
2022-12-03T08:14:38.542Z,28.08
2022-12-03T08:17:04.802Z,29.10
2022-12-03T08:19:31.077Z,29.16
2022-12-03T08:22:01.207Z,28.84
2022-12-03T08:24:27.898Z,27.87
2022-12-03T08:26:54.157Z,28.45
2022-12-03T08:29:20.429Z,28.03
2022-12-03T08:31:46.712Z,28.79
2022-12-03T08:34:13.022Z,28.39
2022-12-03T08:36:39.284Z,27.44
2022-12-03T08:39:05.527Z,26.84
2022-12-03T08:41:31.771Z,26.20
2022-12-03T08:43:58.025Z,27.21
2022-12-03T08:46:24.332Z,26.87
2022-12-03T08:48:50.663Z,27.90
2022-12-03T08:51:16.921Z,26.56
2022-12-03T08:53:43.172Z,27.42
2022-12-03T08:56:09.437Z,26.22
2022-12-03T08:58:35.677Z,26.43
2022-12-03T09:01:02.012Z,27.13
2022-12-03T09:03:28.285Z,26.69
2022-12-03T09:05:54.530Z,26.69
2022-12-03T09:08:20.827Z,26.61
2022-12-03T09:10:47.121Z,26.84
2022-12-03T09:13:13.371Z,27.58
2022-12-03T09:15:39.620Z,27.81
2022-12-03T09:18:05.861Z,25.96
2022-12-03T09:20:32.106Z,27.53
2022-12-03T09:22:58.352Z,26.59
2022-12-03T09:25:24.606Z,27.10
2022-12-03T09:27:50.895Z,27.09
2022-12-03T09:30:17.150Z,26.80
2022-12-03T09:32:43.400Z,27.17
2022-12-03T09:35:09.670Z,28.03
2022-12-03T09:37:35.937Z,28.45
2022-12-03T09:40:02.224Z,27.58
2022-12-03T09:42:28.482Z,26.52
2022-12-03T09:44:55.064Z,26.32
2022-12-03T09:47:21.669Z,26.66
2022-12-03T09:49:47.909Z,26.74
2022-12-03T09:52:14.163Z,27.87
2022-12-03T09:54:45.561Z,26.48
2022-12-03T09:57:13.449Z,26.14
2022-12-03T09:59:39.693Z,26.98
2022-12-03T10:02:06.006Z,26.56
2022-12-03T10:04:32.366Z,26.20
2022-12-03T10:06:58.638Z,25.57
2022-12-03T10:09:24.898Z,24.55
2022-12-03T10:11:51.163Z,25.12
2022-12-03T10:14:17.426Z,25.88
2022-12-03T10:16:43.782Z,25.30
2022-12-03T10:19:10.128Z,24.18
2022-12-03T10:21:36.369Z,24.43
2022-12-03T10:24:02.640Z,24.81
2022-12-03T10:26:28.904Z,25.27
2022-12-03T10:28:55.142Z,25.78
2022-12-03T10:31:21.423Z,24.14
2022-12-03T10:33:47.739Z,24.56
2022-12-03T10:36:14.003Z,25.10
2022-12-03T10:38:40.273Z,25.72
2022-12-03T10:41:06.513Z,24.75
2022-12-03T10:43:32.755Z,24.65
2022-12-03T10:46:03.524Z,24.17
2022-12-03T10:48:30.587Z,24.51
2022-12-03T10:50:56.841Z,23.02
2022-12-03T10:53:23.088Z,25.41
2022-12-03T10:55:49.336Z,25.21
2022-12-03T10:58:15.582Z,26.27
2022-12-03T11:00:41.850Z,26.03
2022-12-03T11:03:08.119Z,25.26
2022-12-03T11:05:34.387Z,25.07
2022-12-03T11:08:00.690Z,25.06
2022-12-03T11:10:26.974Z,25.58
2022-12-03T11:12:53.222Z,26.34
2022-12-03T11:15:19.479Z,26.21
2022-12-03T11:17:45.747Z,26.40
2022-12-03T11:20:11.991Z,24.60
2022-12-03T11:22:38.262Z,25.54
2022-12-03T11:25:04.506Z,24.51
2022-12-03T11:27:30.811Z,25.40
2022-12-03T11:29:57.080Z,25.02
2022-12-03T11:32:25.942Z,25.96
2022-12-03T11:34:55.715Z,26.41
2022-12-03T11:37:22.080Z,27.69
2022-12-03T11:39:48.346Z,26.01
2022-12-03T11:42:14.595Z,25.52
2022-12-03T11:44:40.840Z,25.51
2022-12-03T11:47:07.139Z,24.27
2022-12-03T11:49:33.427Z,25.25
2022-12-03T11:51:59.664Z,25.50
2022-12-03T11:54:25.916Z,25.95
2022-12-03T11:56:52.177Z,26.20
2022-12-03T11:59:18.422Z,25.06
2022-12-03T12:01:44.687Z,26.06
2022-12-03T12:04:11.005Z,25.65
2022-12-03T12:06:37.301Z,26.01
2022-12-03T12:09:03.574Z,25.51
2022-12-03T12:11:29.827Z,26.16
2022-12-03T12:13:56.067Z,27.70
2022-12-03T12:16:22.350Z,26.52
2022-12-03T12:18:53.737Z,26.75
2022-12-03T12:21:21.229Z,29.30
2022-12-03T12:23:47.595Z,27.41
2022-12-03T12:26:13.891Z,26.26
2022-12-03T12:28:40.157Z,26.02
2022-12-03T12:31:06.427Z,27.26
2022-12-03T12:33:32.703Z,26.21
2022-12-03T12:35:58.976Z,26.08
2022-12-03T12:38:25.241Z,26.37
2022-12-03T12:40:51.509Z,25.93
2022-12-03T12:43:23.337Z,26.17
2022-12-03T12:45:50.205Z,25.24
2022-12-03T12:48:16.447Z,25.72
2022-12-03T12:50:42.712Z,25.74
2022-12-03T12:53:08.966Z,26.85
2022-12-03T12:55:35.235Z,27.17
2022-12-03T12:58:01.493Z,25.66
2022-12-03T13:00:27.801Z,25.17
2022-12-03T13:02:54.255Z,25.64
2022-12-03T13:05:20.562Z,25.30
2022-12-03T13:07:46.826Z,25.51
2022-12-03T13:10:13.116Z,27.97
2022-12-03T13:12:39.364Z,27.91
2022-12-03T13:15:05.611Z,28.70
2022-12-03T13:17:31.857Z,28.57
2022-12-03T13:20:05.417Z,29.55
2022-12-03T13:22:33.242Z,28.23
2022-12-03T13:24:59.493Z,28.72
2022-12-03T13:27:25.753Z,31.73
2022-12-03T13:29:52.430Z,27.73
2022-12-03T13:32:18.979Z,27.90
2022-12-03T13:34:45.220Z,28.78
2022-12-03T13:37:11.469Z,29.68
2022-12-03T13:39:37.730Z,27.35
2022-12-03T13:42:03.992Z,26.25
2022-12-03T13:44:30.253Z,25.54
2022-12-03T13:46:56.524Z,24.78
2022-12-03T13:49:22.774Z,25.63
2022-12-03T13:51:49.045Z,37.69
2022-12-03T13:54:16.219Z,29.60
2022-12-03T13:56:42.570Z,32.56
2022-12-03T13:59:08.822Z,29.48
2022-12-03T14:01:35.146Z,30.32
2022-12-03T14:04:01.471Z,31.40
2022-12-03T14:06:27.736Z,32.38
2022-12-03T14:08:53.994Z,28.57
2022-12-03T14:11:20.238Z,26.80
2022-12-03T14:13:46.478Z,27.07
2022-12-03T14:16:12.821Z,29.52
2022-12-03T14:18:39.117Z,35.77
2022-12-03T14:21:05.362Z,27.46
2022-12-03T14:23:31.621Z,25.92
2022-12-03T14:25:57.857Z,29.57
2022-12-03T14:28:24.098Z,27.47
2022-12-03T14:30:50.363Z,25.46
2022-12-03T14:33:16.612Z,26.13
2022-12-03T14:35:42.873Z,25.31
2022-12-03T14:38:09.116Z,23.15
2022-12-03T14:40:35.366Z,22.27
2022-12-03T14:43:01.607Z,21.82
2022-12-03T14:45:27.909Z,21.93
2022-12-03T14:47:54.201Z,22.20
2022-12-03T14:50:20.443Z,21.67
2022-12-03T14:52:46.691Z,21.58
2022-12-03T14:55:12.957Z,21.69
2022-12-03T14:57:39.247Z,21.79
2022-12-03T15:00:05.526Z,22.22
2022-12-03T15:02:31.851Z,22.09
2022-12-03T15:04:58.151Z,22.59
2022-12-03T15:07:24.426Z,21.81
2022-12-03T15:09:50.696Z,20.59
2022-12-03T15:12:16.939Z,21.79
2022-12-03T15:14:43.216Z,21.62
2022-12-03T15:17:09.538Z,22.21
2022-12-03T15:19:35.812Z,21.74
2022-12-03T15:22:02.073Z,21.91
2022-12-03T15:24:28.337Z,21.55
2022-12-03T15:26:54.592Z,21.04
2022-12-03T15:29:20.855Z,20.41
2022-12-03T15:31:47.172Z,20.73
2022-12-03T15:34:18.771Z,21.75
2022-12-03T15:36:48.265Z,22.48
2022-12-03T15:39:14.525Z,23.49
2022-12-03T15:41:40.790Z,27.33
2022-12-03T15:44:07.047Z,23.08
2022-12-03T15:46:33.304Z,22.41
2022-12-03T15:48:59.564Z,23.94
2022-12-03T15:51:25.830Z,22.77
2022-12-03T15:53:52.077Z,21.56
2022-12-03T15:56:18.341Z,23.37
2022-12-03T15:58:44.593Z,23.14
2022-12-03T16:01:10.889Z,22.14
2022-12-03T16:03:37.239Z,22.41
2022-12-03T16:06:03.536Z,22.77
2022-12-03T16:08:29.802Z,21.34
2022-12-03T16:10:56.069Z,22.13
2022-12-03T16:13:22.321Z,21.89
2022-12-03T16:15:48.645Z,21.88
2022-12-03T16:18:14.901Z,22.32
2022-12-03T16:20:41.158Z,21.26
2022-12-03T16:23:07.402Z,22.47
2022-12-03T16:25:33.649Z,21.43
2022-12-03T16:27:59.935Z,21.99
2022-12-03T16:30:26.183Z,21.53
2022-12-03T16:32:52.423Z,22.15
2022-12-03T16:35:18.700Z,21.87
2022-12-03T16:37:44.975Z,22.63
2022-12-03T16:40:11.215Z,21.99
2022-12-03T16:42:37.458Z,22.62
2022-12-03T16:45:03.713Z,22.47
2022-12-03T16:47:33.908Z,22.30
2022-12-03T16:50:00.807Z,22.36
2022-12-03T16:52:27.122Z,23.14
2022-12-03T16:54:53.365Z,23.21
2022-12-03T16:57:19.634Z,22.92
2022-12-03T16:59:45.887Z,22.61
2022-12-03T17:02:12.187Z,21.62
2022-12-03T17:04:38.503Z,21.22
2022-12-03T17:07:04.758Z,22.97
2022-12-03T17:09:31.011Z,24.30
2022-12-03T17:11:57.252Z,24.29
2022-12-03T17:14:26.232Z,22.82
2022-12-03T17:16:54.801Z,23.55
2022-12-03T17:19:21.048Z,22.15
2022-12-03T17:21:47.302Z,23.06
2022-12-03T17:24:13.565Z,23.42
2022-12-03T17:26:39.815Z,23.19
2022-12-03T17:29:06.067Z,24.22
2022-12-03T17:31:36.992Z,23.92
2022-12-03T17:34:06.469Z,22.29
2022-12-03T17:36:32.726Z,23.54
2022-12-03T17:38:58.998Z,22.89
2022-12-03T17:41:25.278Z,23.53
2022-12-03T17:43:51.541Z,23.36
2022-12-03T17:46:17.867Z,21.98
2022-12-03T17:48:44.151Z,22.00
2022-12-03T17:51:10.395Z,21.58
2022-12-03T17:53:36.636Z,22.11
2022-12-03T17:56:02.905Z,22.23
2022-12-03T17:58:29.158Z,22.96
2022-12-03T18:01:00.466Z,24.11
2022-12-03T18:03:28.920Z,22.84
2022-12-03T18:05:55.173Z,22.68
2022-12-03T18:08:21.459Z,23.46
2022-12-03T18:10:47.784Z,22.93
2022-12-03T18:13:14.055Z,22.54
2022-12-03T18:15:40.353Z,22.74
2022-12-03T18:18:06.611Z,21.95
2022-12-03T18:20:32.863Z,22.97
2022-12-03T18:22:59.108Z,22.80
2022-12-03T18:25:25.342Z,22.35
2022-12-03T18:27:51.600Z,22.41
2022-12-03T18:30:17.857Z,21.50
2022-12-03T18:32:44.121Z,21.68
2022-12-03T18:35:10.366Z,22.16
2022-12-03T18:37:36.608Z,21.51
2022-12-03T18:40:12.143Z,23.42
2022-12-03T18:42:39.198Z,23.49
2022-12-03T18:45:05.548Z,22.62
2022-12-03T18:47:31.896Z,21.66
2022-12-03T18:49:58.371Z,22.94
2022-12-03T18:52:24.819Z,22.35
2022-12-03T18:54:51.093Z,22.98
2022-12-03T18:57:17.343Z,21.92
2022-12-03T18:59:43.606Z,22.84
2022-12-03T19:02:09.945Z,23.11
2022-12-03T19:04:36.230Z,23.12
2022-12-03T19:07:02.526Z,24.02
2022-12-03T19:09:28.787Z,24.16
2022-12-03T19:11:55.049Z,24.04
2022-12-03T19:14:21.304Z,23.58
2022-12-03T19:16:47.594Z,23.46
2022-12-03T19:19:13.865Z,22.78
2022-12-03T19:21:40.130Z,23.26
2022-12-03T19:26:52.625Z,23.33
2022-12-03T19:29:18.891Z,23.67
2022-12-03T19:31:45.179Z,22.94
2022-12-03T19:34:11.450Z,22.28
2022-12-03T19:36:37.705Z,23.17
2022-12-03T19:39:03.950Z,22.95
2022-12-03T19:41:30.219Z,22.90
2022-12-03T19:43:56.499Z,22.80
2022-12-03T19:46:22.790Z,22.72
2022-12-03T19:48:49.118Z,23.11
2022-12-03T19:51:33.488Z,22.32
2022-12-03T19:54:00.201Z,23.92
2022-12-03T19:56:26.464Z,24.01
2022-12-03T19:58:52.716Z,23.43
2022-12-03T20:01:19.029Z,23.75
2022-12-03T20:03:45.349Z,23.58
2022-12-03T20:06:11.610Z,23.74
2022-12-03T20:08:37.883Z,23.46
2022-12-03T20:11:04.139Z,24.34
2022-12-03T20:13:34.981Z,24.08
2022-12-03T20:16:02.818Z,23.96
2022-12-03T20:18:29.159Z,24.68
2022-12-03T20:20:55.516Z,24.94
2022-12-03T20:23:21.758Z,24.26
2022-12-03T20:25:48.015Z,23.50
2022-12-03T20:28:14.275Z,25.24
2022-12-03T20:30:40.519Z,24.67
2022-12-03T20:33:06.763Z,24.03
2022-12-03T20:35:33.024Z,24.86
2022-12-03T20:37:59.271Z,25.66
2022-12-03T20:40:25.517Z,25.57
2022-12-03T20:42:51.777Z,24.18
2022-12-03T20:45:18.046Z,23.77
2022-12-03T20:47:44.286Z,25.16
2022-12-03T20:50:10.546Z,25.44
2022-12-03T20:52:36.787Z,25.11
2022-12-03T20:55:03.069Z,25.33
2022-12-03T20:57:29.332Z,24.99
2022-12-03T20:59:55.963Z,26.09
2022-12-03T21:02:22.456Z,25.20
2022-12-03T21:04:48.747Z,24.92
2022-12-03T21:07:15.014Z,24.92
2022-12-03T21:09:41.290Z,24.38
2022-12-03T21:12:07.537Z,24.89
2022-12-03T21:14:33.800Z,25.51
2022-12-03T21:17:08.385Z,24.32
2022-12-03T21:19:35.269Z,24.18
2022-12-03T21:22:01.525Z,23.73
2022-12-03T21:24:27.785Z,24.37
2022-12-03T21:26:54.030Z,23.58
2022-12-03T21:29:20.272Z,22.46
2022-12-03T21:31:46.540Z,22.35
2022-12-03T21:34:12.789Z,22.85
2022-12-03T21:36:39.070Z,23.06
2022-12-03T21:39:05.329Z,22.38
2022-12-03T21:41:31.578Z,21.82
2022-12-03T21:43:57.822Z,22.82
2022-12-03T21:47:09.672Z,23.61
2022-12-03T21:49:10.283Z,22.34
2022-12-03T21:51:36.538Z,22.33
2022-12-03T21:54:02.802Z,23.61
2022-12-03T21:56:29.051Z,22.17
2022-12-03T21:58:55.320Z,21.54
2022-12-03T22:01:21.768Z,21.38
2022-12-03T22:03:48.059Z,21.75
2022-12-03T22:06:14.324Z,21.40
2022-12-03T22:08:40.588Z,22.38
2022-12-03T22:11:06.845Z,21.86
2022-12-03T22:13:33.090Z,22.87
2022-12-03T22:15:59.417Z,22.85
2022-12-03T22:18:25.756Z,22.71
2022-12-03T22:20:52.002Z,23.02
2022-12-03T22:23:18.267Z,23.54
2022-12-03T22:25:44.533Z,22.96
2022-12-03T22:28:10.777Z,23.18
2022-12-03T22:30:37.237Z,23.27
2022-12-03T22:33:03.529Z,23.29
2022-12-03T22:35:29.791Z,23.71
2022-12-03T22:37:56.037Z,23.97
2022-12-03T22:40:22.275Z,23.84
2022-12-03T22:42:51.119Z,24.11
2022-12-03T22:45:17.553Z,23.69
2022-12-03T22:47:43.826Z,23.47
2022-12-03T22:50:10.087Z,24.31
2022-12-03T22:52:36.356Z,25.19
2022-12-03T22:55:02.597Z,26.07
2022-12-03T22:57:28.841Z,26.45
2022-12-03T22:59:55.308Z,24.43
2022-12-03T23:02:21.799Z,25.16
2022-12-03T23:04:48.050Z,24.84
2022-12-03T23:07:14.301Z,24.28
2022-12-03T23:09:40.562Z,24.83
2022-12-03T23:12:06.818Z,24.90
2022-12-03T23:14:33.096Z,24.46
2022-12-03T23:16:59.370Z,24.25
2022-12-03T23:19:25.614Z,24.44
2022-12-03T23:21:51.884Z,25.91
2022-12-03T23:24:18.122Z,26.93
2022-12-03T23:26:44.371Z,25.57
2022-12-03T23:29:10.633Z,25.92
2022-12-03T23:31:37.003Z,26.34
2022-12-03T23:34:03.375Z,26.29
2022-12-03T23:36:29.741Z,28.66
2022-12-03T23:38:56.026Z,29.10
2022-12-03T23:41:22.282Z,27.49
2022-12-03T23:43:48.534Z,26.99
2022-12-03T23:46:14.876Z,26.60
2022-12-03T23:48:41.247Z,27.44
2022-12-03T23:51:07.510Z,28.07
2022-12-03T23:53:33.763Z,27.32
2022-12-03T23:56:00.007Z,26.27
2022-12-03T23:58:26.282Z,26.95
